Time;durP1;ratioP1;P1;durP2;ratioP2;P2;SDS_P1;SDS_P2;PMS_P1;PMS_P2;Temp;Humidity;BMP_temperature;BMP_pressure;BME280_temperature;BME280_humidity;BME280_pressure;Samples;Min_cycle;Max_cycle;Signal;HPM_P1;HPM_P2
2023/08/16 00:02:04;;;;;;;8.83;3.50;;;19.50;99.90;;;;;;5057646;28;20199;-80
2023/08/16 00:04:30;;;;;;;7.27;3.20;;;19.50;99.90;;;;;;5056203;28;20187;-80
2023/08/16 00:06:55;;;;;;;7.13;3.40;;;19.50;99.90;;;;;;5057376;28;20190;-80
2023/08/16 00:09:21;;;;;;;10.83;3.63;;;19.50;99.90;;;;;;5057600;28;20544;-81
2023/08/16 00:11:47;;;;;;;6.23;3.07;;;19.50;99.90;;;;;;5057484;28;20195;-80
2023/08/16 00:14:13;;;;;;;7.20;3.83;;;19.50;99.90;;;;;;5055550;28;20179;-80
2023/08/16 00:16:38;;;;;;;7.47;2.97;;;19.50;99.90;;;;;;5057259;28;20298;-81
2023/08/16 00:19:04;;;;;;;9.23;3.73;;;19.60;99.90;;;;;;5055389;28;20262;-80
2023/08/16 00:21:30;;;;;;;9.43;3.87;;;19.50;99.90;;;;;;5055542;28;20617;-80
2023/08/16 00:23:55;;;;;;;12.80;4.50;;;19.60;99.90;;;;;;5057264;28;20172;-80
2023/08/16 00:26:21;;;;;;;13.33;4.63;;;19.50;99.90;;;;;;5055648;28;20186;-81
2023/08/16 00:28:48;;;;;;;6.80;4.13;;;19.50;99.90;;;;;;5055756;28;20237;-80
2023/08/16 00:31:14;;;;;;;10.93;4.73;;;19.40;99.90;;;;;;5056876;28;20199;-81
2023/08/16 00:33:40;;;;;;;9.27;4.77;;;19.50;99.90;;;;;;5055810;28;20266;-81
2023/08/16 00:36:07;;;;;;;8.70;4.60;;;19.40;99.90;;;;;;5056672;28;20234;-81
2023/08/16 00:38:32;;;;;;;8.70;5.27;;;19.40;99.90;;;;;;5056866;28;20175;-80
2023/08/16 00:40:58;;;;;;;8.30;5.00;;;19.30;99.90;;;;;;5055211;28;20199;-80
2023/08/16 00:43:24;;;;;;;15.50;5.97;;;19.30;99.90;;;;;;5056911;28;20184;-80
2023/08/16 00:45:50;;;;;;;9.73;4.97;;;19.30;99.90;;;;;;5055321;28;20172;-81
2023/08/16 00:48:18;;;;;;;10.50;5.40;;;19.30;99.90;;;;;;5056793;28;20174;-81
2023/08/16 00:50:44;;;;;;;12.23;4.83;;;19.20;99.90;;;;;;5056519;28;20755;-81
2023/08/16 00:53:12;;;;;;;9.07;4.77;;;19.20;99.90;;;;;;5056326;28;20664;-80
2023/08/16 00:55:38;;;;;;;9.47;5.20;;;19.20;99.90;;;;;;5056112;28;20249;-80
2023/08/16 00:58:04;;;;;;;8.80;5.10;;;19.20;99.90;;;;;;5054965;28;20175;-81
2023/08/16 01:00:30;;;;;;;11.50;4.97;;;19.10;99.90;;;;;;5054841;28;20202;-80
2023/08/16 01:02:55;;;;;;;9.80;4.33;;;19.10;99.90;;;;;;5055057;28;20176;-81
2023/08/16 01:05:22;;;;;;;10.37;4.80;;;19.10;99.90;;;;;;5056080;28;20222;-80
2023/08/16 01:07:47;;;;;;;15.07;4.67;;;19.00;99.90;;;;;;5054369;28;20175;-80
2023/08/16 01:10:13;;;;;;;9.97;4.40;;;19.00;99.90;;;;;;5056210;28;20190;-80
2023/08/16 01:12:56;;;;;;;9.67;4.20;;;19.00;99.90;;;;;;5054514;28;20493;-81
2023/08/16 01:15:29;;;;;;;9.53;4.83;;;19.00;99.90;;;;;;5055832;28;20188;-81
2023/08/16 01:17:56;;;;;;;9.47;4.23;;;18.90;99.90;;;;;;5056035;28;20160;-81
2023/08/16 01:20:22;;;;;;;9.63;4.40;;;18.90;99.90;;;;;;5056085;28;20663;-80
2023/08/16 01:23:03;;;;;;;7.50;4.60;;;18.90;99.90;;;;;;5056187;28;20168;-81
2023/08/16 01:25:53;;;;;;;8.77;4.63;;;18.80;99.90;;;;;;5055866;28;20152;-80
2023/08/16 01:28:20;;;;;;;9.47;3.80;;;18.80;99.90;;;;;;5055638;28;20201;-80
2023/08/16 01:30:46;;;;;;;9.10;3.47;;;18.90;99.90;;;;;;5055722;28;20203;-81
2023/08/16 01:33:13;;;;;;;6.17;3.63;;;18.80;99.90;;;;;;5053752;28;20175;-81
2023/08/16 01:35:39;;;;;;;9.50;3.80;;;18.70;99.90;;;;;;5055755;28;20250;-80
2023/08/16 01:38:07;;;;;;;9.57;3.97;;;18.60;99.90;;;;;;5055101;28;20643;-81
2023/08/16 01:40:51;;;;;;;10.73;3.90;;;18.70;99.90;;;;;;5055950;28;20195;-81
2023/08/16 01:43:17;;;;;;;10.90;3.80;;;18.70;99.90;;;;;;5053959;28;20170;-81
2023/08/16 01:45:44;;;;;;;6.07;3.67;;;18.70;99.90;;;;;;5055795;28;20234;-81
2023/08/16 01:48:11;;;;;;;6.10;3.50;;;18.70;99.90;;;;;;5054019;28;20267;-80
2023/08/16 01:50:36;;;;;;;5.73;4.00;;;18.70;99.90;;;;;;5054023;28;20568;-80
2023/08/16 01:53:02;;;;;;;8.13;3.80;;;18.90;99.90;;;;;;5053898;28;20183;-80
2023/08/16 01:55:27;;;;;;;8.77;3.70;;;18.60;99.90;;;;;;5053743;28;20529;-81
2023/08/16 01:57:53;;;;;;;9.77;3.83;;;18.60;99.90;;;;;;5055969;28;20704;-80
2023/08/16 02:00:19;;;;;;;12.73;3.90;;;18.60;99.90;;;;;;5054532;28;20179;-80
2023/08/16 02:02:44;;;;;;;8.77;3.73;;;18.60;99.90;;;;;;5054326;28;20262;-80
2023/08/16 02:05:10;;;;;;;10.27;3.63;;;18.60;99.90;;;;;;5054040;28;20176;-80
2023/08/16 02:07:35;;;;;;;5.83;3.50;;;18.50;99.90;;;;;;5059070;28;20643;-81
2023/08/16 02:10:01;;;;;;;5.60;3.20;;;18.70;99.90;;;;;;5058034;28;20175;-81
2023/08/16 02:12:27;;;;;;;12.90;3.60;;;18.50;99.90;;;;;;5059658;28;20539;-80
2023/08/16 02:14:52;;;;;;;8.90;3.80;;;18.50;99.90;;;;;;5057423;28;20550;-81
2023/08/16 02:17:18;;;;;;;12.03;3.47;;;18.60;99.90;;;;;;5059799;28;20188;-81
2023/08/16 02:19:43;;;;;;;8.77;3.80;;;18.40;99.90;;;;;;5059531;28;20179;-80
2023/08/16 02:22:09;;;;;;;8.10;4.03;;;18.40;99.90;;;;;;5057992;28;20195;-81
2023/08/16 02:24:34;;;;;;;12.33;3.83;;;18.50;99.90;;;;;;5059784;28;20199;-80
2023/08/16 02:27:00;;;;;;;9.27;3.53;;;18.40;99.90;;;;;;5057529;28;20202;-80
2023/08/16 02:29:26;;;;;;;9.60;3.80;;;18.40;99.90;;;;;;5058769;28;20195;-80
2023/08/16 02:31:51;;;;;;;7.40;3.80;;;18.40;99.90;;;;;;5057382;28;20209;-80
2023/08/16 02:34:17;;;;;;;9.67;3.87;;;18.40;99.90;;;;;;5059047;28;20262;-80
2023/08/16 02:36:42;;;;;;;6.93;3.83;;;18.40;99.90;;;;;;5058112;28;20242;-81
2023/08/16 02:39:08;;;;;;;9.80;4.30;;;18.30;99.90;;;;;;5058982;28;20175;-80
2023/08/16 02:41:35;;;;;;;7.83;4.10;;;18.30;99.90;;;;;;5057571;28;20195;-80
2023/08/16 02:44:00;;;;;;;7.83;4.03;;;18.30;99.90;;;;;;5058185;28;20543;-80
2023/08/16 02:46:26;;;;;;;7.03;4.00;;;18.30;99.90;;;;;;5057602;28;20188;-80
2023/08/16 02:48:52;;;;;;;12.20;3.97;;;18.30;99.90;;;;;;5057672;28;20321;-81
2023/08/16 02:51:17;;;;;;;9.37;3.73;;;18.10;99.90;;;;;;5056889;28;20750;-80
2023/08/16 02:53:43;;;;;;;7.37;3.60;;;18.30;99.90;;;;;;5058312;28;20180;-80
2023/08/16 02:56:08;;;;;;;10.23;3.73;;;18.30;99.90;;;;;;5056990;28;20242;-80
2023/08/16 02:58:34;;;;;;;6.10;4.03;;;18.30;99.90;;;;;;5058963;28;20643;-81
2023/08/16 03:00:59;;;;;;;7.00;3.97;;;18.30;99.90;;;;;;5058624;28;20731;-81
2023/08/16 03:03:25;;;;;;;7.07;3.87;;;18.30;99.90;;;;;;5058703;28;20172;-80
2023/08/16 03:05:50;;;;;;;10.27;3.67;;;18.20;99.90;;;;;;5044813;28;20188;-80
2023/08/16 03:08:16;;;;;;;6.43;3.57;;;18.30;99.90;;;;;;5036735;28;20184;-80
2023/08/16 03:10:41;;;;;;;8.57;3.70;;;18.20;99.90;;;;;;5038124;28;20207;-80
2023/08/16 03:13:08;;;;;;;14.33;3.37;;;18.20;99.90;;;;;;5036820;28;20180;-80
2023/08/16 03:15:34;;;;;;;9.70;3.40;;;18.20;99.90;;;;;;5036505;28;20207;-80
2023/08/16 03:17:59;;;;;;;10.13;3.40;;;18.20;99.90;;;;;;5036889;28;20263;-81
2023/08/16 03:20:25;;;;;;;7.23;3.30;;;18.20;99.90;;;;;;5037620;28;20195;-80
2023/08/16 03:22:51;;;;;;;12.67;4.43;;;18.20;99.90;;;;;;5038378;28;20196;-80
2023/08/16 03:25:17;;;;;;;11.57;4.27;;;18.20;99.90;;;;;;5036560;28;20559;-81
2023/08/16 03:27:42;;;;;;;9.70;3.90;;;18.10;99.90;;;;;;5037913;28;20551;-80
2023/08/16 03:30:09;;;;;;;10.47;3.93;;;18.20;99.90;;;;;;5036713;28;20195;-80
2023/08/16 03:32:34;;;;;;;7.23;4.17;;;18.20;99.90;;;;;;5037470;28;20199;-81
2023/08/16 03:35:00;;;;;;;11.57;4.40;;;18.10;99.90;;;;;;5043030;28;20192;-80
2023/08/16 03:37:25;;;;;;;10.70;4.50;;;18.20;99.90;;;;;;5057890;28;20167;-79
2023/08/16 03:39:52;;;;;;;9.60;4.17;;;18.20;99.90;;;;;;5055895;28;20258;-80
2023/08/16 03:42:17;;;;;;;10.07;4.20;;;18.20;99.90;;;;;;5057450;28;20198;-81
2023/08/16 03:44:43;;;;;;;6.50;4.23;;;18.30;99.90;;;;;;5057645;28;20254;-80
2023/08/16 03:47:11;;;;;;;9.00;3.93;;;18.30;99.90;;;;;;5055904;28;20164;-80
2023/08/16 03:49:36;;;;;;;12.33;4.90;;;18.30;99.90;;;;;;5057235;28;20191;-81
2023/08/16 03:52:02;;;;;;;6.97;4.53;;;18.30;99.90;;;;;;5055679;28;20195;-80
2023/08/16 03:54:27;;;;;;;6.80;4.53;;;18.30;99.90;;;;;;5056087;28;20176;-80
2023/08/16 03:56:53;;;;;;;6.90;4.83;;;18.40;99.90;;;;;;5056020;28;20222;-80
2023/08/16 03:59:18;;;;;;;11.13;5.60;;;18.30;99.90;;;;;;5056283;28;20179;-81
2023/08/16 04:01:44;;;;;;;8.07;4.43;;;18.40;99.90;;;;;;5057253;28;20218;-81
2023/08/16 04:04:09;;;;;;;5.63;4.03;;;18.50;99.90;;;;;;5057065;28;20195;-81
2023/08/16 04:06:35;;;;;;;11.13;4.07;;;18.70;99.90;;;;;;5057149;28;20284;-81
2023/08/16 04:09:00;;;;;;;6.57;4.03;;;18.50;99.90;;;;;;5057033;28;20286;-81
2023/08/16 04:11:26;;;;;;;8.43;3.70;;;18.50;99.90;;;;;;5056689;28;20257;-81
2023/08/16 04:13:51;;;;;;;5.97;3.10;;;18.50;99.90;;;;;;5055713;28;20180;-81
2023/08/16 04:16:17;;;;;;;8.77;4.13;;;18.50;99.90;;;;;;5057040;28;20231;-81
2023/08/16 04:18:43;;;;;;;8.63;3.90;;;18.60;99.90;;;;;;5056412;28;20234;-80
2023/08/16 04:21:08;;;;;;;10.90;3.70;;;18.60;99.90;;;;;;5055435;28;20203;-80
2023/08/16 04:23:34;;;;;;;7.23;3.00;;;18.60;99.90;;;;;;5056908;28;20184;-82
2023/08/16 04:25:59;;;;;;;12.80;3.70;;;18.70;99.90;;;;;;5057063;28;20314;-81
2023/08/16 04:28:25;;;;;;;7.23;3.90;;;18.80;99.90;;;;;;5054888;28;20195;-82
2023/08/16 04:30:51;;;;;;;10.00;4.20;;;18.70;99.90;;;;;;5056717;28;20195;-82
2023/08/16 04:33:16;;;;;;;7.07;4.20;;;18.60;99.90;;;;;;5055059;28;20183;-80
2023/08/16 04:35:42;;;;;;;7.30;3.70;;;18.70;99.90;;;;;;5056334;28;20227;-80
2023/08/16 04:38:08;;;;;;;13.13;4.70;;;18.60;99.90;;;;;;5056577;28;20172;-81
2023/08/16 04:40:34;;;;;;;8.17;4.00;;;18.70;99.90;;;;;;5054955;28;20253;-81
2023/08/16 04:43:00;;;;;;;9.70;3.63;;;18.60;99.90;;;;;;5054724;28;20180;-80
2023/08/16 04:45:25;;;;;;;8.10;3.90;;;18.70;99.90;;;;;;5054733;28;20183;-82
2023/08/16 04:47:51;;;;;;;8.53;3.60;;;18.70;99.90;;;;;;5055601;28;20186;-82
2023/08/16 04:50:17;;;;;;;7.57;4.27;;;18.80;99.90;;;;;;5056430;28;20233;-82
2023/08/16 04:52:42;;;;;;;9.67;3.83;;;18.60;99.90;;;;;;5056417;28;20176;-82
2023/08/16 04:55:08;;;;;;;9.60;3.60;;;18.70;99.90;;;;;;5055784;28;20565;-82
2023/08/16 04:57:34;;;;;;;7.90;3.23;;;18.60;99.90;;;;;;5054444;28;20523;-80
2023/08/16 05:00:00;;;;;;;13.33;5.87;;;18.70;99.90;;;;;;5055543;28;20187;-80
2023/08/16 05:02:26;;;;;;;10.67;3.23;;;18.70;99.90;;;;;;5055480;28;20194;-79
2023/08/16 05:04:51;;;;;;;6.57;3.60;;;18.60;99.90;;;;;;5056120;28;20227;-79
2023/08/16 05:07:17;;;;;;;10.30;4.03;;;18.70;99.90;;;;;;5054726;28;20172;-80
2023/08/16 05:09:42;;;;;;;10.67;4.03;;;18.70;99.90;;;;;;5054847;28;20677;-79
2023/08/16 05:12:08;;;;;;;13.60;3.97;;;18.60;99.90;;;;;;5056191;28;20192;-79
2023/08/16 05:14:34;;;;;;;6.53;3.90;;;18.60;99.90;;;;;;5055130;28;20588;-79
2023/08/16 05:16:59;;;;;;;8.90;3.73;;;18.60;99.90;;;;;;5054710;28;20234;-79
2023/08/16 05:19:25;;;;;;;11.23;5.10;;;18.60;99.90;;;;;;5056445;28;20198;-79
2023/08/16 05:21:50;;;;;;;5.93;4.30;;;18.60;99.90;;;;;;5055163;28;20686;-79
2023/08/16 05:24:16;;;;;;;8.73;3.73;;;18.70;99.90;;;;;;5066744;28;20171;-79
2023/08/16 05:26:42;;;;;;;7.60;4.10;;;18.60;99.90;;;;;;5065689;28;20674;-79
2023/08/16 05:29:07;;;;;;;11.67;4.47;;;18.70;99.90;;;;;;5060250;28;20260;-79
2023/08/16 05:31:33;;;;;;;11.00;5.33;;;18.70;99.90;;;;;;5055876;28;20207;-79
2023/08/16 05:33:58;;;;;;;12.70;5.87;;;18.70;99.90;;;;;;5054787;28;20267;-79
2023/08/16 05:36:29;;;;;;;11.23;6.40;;;18.70;99.90;;;;;;5053896;28;20203;-78
2023/08/16 05:38:54;;;;;;;13.87;6.53;;;18.70;99.90;;;;;;5054015;28;20264;-79
2023/08/16 05:41:20;;;;;;;14.23;6.90;;;18.70;99.90;;;;;;5053838;28;20302;-79
2023/08/16 05:43:46;;;;;;;13.77;6.47;;;18.70;99.90;;;;;;5054195;28;20262;-79
2023/08/16 05:46:11;;;;;;;11.97;6.60;;;18.70;99.90;;;;;;5054105;28;20185;-79
2023/08/16 05:48:37;;;;;;;11.07;6.63;;;18.70;99.90;;;;;;5054390;28;20202;-79
2023/08/16 05:51:02;;;;;;;11.40;5.90;;;18.70;99.90;;;;;;5053491;28;20199;-79
2023/08/16 05:53:28;;;;;;;13.33;5.90;;;18.80;99.90;;;;;;5054036;28;20180;-79
2023/08/16 05:55:53;;;;;;;10.60;6.30;;;18.80;99.90;;;;;;5053689;28;20203;-79
2023/08/16 05:58:19;;;;;;;11.47;5.93;;;18.80;99.90;;;;;;5054009;28;20206;-79
2023/08/16 06:00:47;;;;;;;10.93;6.17;;;19.00;99.90;;;;;;5054962;28;20271;-79
2023/08/16 06:03:14;;;;;;;8.97;5.13;;;18.80;99.90;;;;;;5053847;28;20224;-79
2023/08/16 06:05:40;;;;;;;10.57;5.30;;;18.90;99.90;;;;;;5053292;28;20238;-79
2023/08/16 06:08:05;;;;;;;9.13;4.30;;;19.00;99.90;;;;;;5053681;28;20199;-79
2023/08/16 06:10:31;;;;;;;7.33;3.80;;;18.90;99.90;;;;;;5054928;28;20172;-79
2023/08/16 06:12:56;;;;;;;8.10;4.47;;;19.00;99.90;;;;;;5053893;28;20176;-79
2023/08/16 06:15:22;;;;;;;6.80;4.20;;;19.10;99.90;;;;;;5053611;28;20199;-78
2023/08/16 06:17:48;;;;;;;6.83;3.93;;;19.10;99.90;;;;;;5053739;28;20585;-79
2023/08/16 06:20:14;;;;;;;10.23;3.83;;;19.20;99.90;;;;;;5057318;28;20176;-80
2023/08/16 06:22:39;;;;;;;9.97;4.03;;;19.20;99.90;;;;;;5054988;28;20175;-79
2023/08/16 06:25:06;;;;;;;8.40;4.27;;;19.40;99.90;;;;;;5055309;28;20163;-79
2023/08/16 06:27:33;;;;;;;5.83;4.03;;;19.40;99.90;;;;;;5055443;28;20266;-79
2023/08/16 06:29:59;;;;;;;7.20;4.70;;;19.40;99.90;;;;;;5055560;28;20160;-79
2023/08/16 06:32:24;;;;;;;5.63;3.70;;;19.50;99.90;;;;;;5055544;28;20286;-79
2023/08/16 06:34:50;;;;;;;11.13;4.33;;;19.40;99.90;;;;;;5057082;28;20249;-79
2023/08/16 06:37:16;;;;;;;9.13;4.63;;;19.50;99.90;;;;;;5057032;28;20180;-78
2023/08/16 06:39:42;;;;;;;10.53;3.93;;;19.50;99.90;;;;;;5054999;28;20168;-79
2023/08/16 06:42:09;;;;;;;9.77;4.03;;;19.50;99.90;;;;;;5055363;28;20196;-79
2023/08/16 06:44:34;;;;;;;10.70;4.77;;;19.60;99.90;;;;;;5054841;28;20168;-79
2023/08/16 06:47:00;;;;;;;6.40;4.47;;;19.70;99.90;;;;;;5055977;28;20174;-78
2023/08/16 06:49:25;;;;;;;6.93;4.40;;;19.70;99.90;;;;;;5055435;28;20603;-78
2023/08/16 06:51:51;;;;;;;5.50;4.50;;;19.70;99.90;;;;;;5057084;28;20612;-79
2023/08/16 06:54:16;;;;;;;6.97;3.90;;;19.70;99.90;;;;;;5058294;28;20180;-79
2023/08/16 06:56:42;;;;;;;6.03;4.00;;;19.80;99.90;;;;;;5058821;28;20694;-79
2023/08/16 06:59:08;;;;;;;6.73;3.77;;;19.90;99.90;;;;;;5056394;28;20174;-79
2023/08/16 07:01:33;;;;;;;5.57;4.07;;;20.20;99.90;;;;;;5059055;28;20227;-78
2023/08/16 07:03:59;;;;;;;11.23;4.30;;;20.10;99.90;;;;;;5057482;28;20559;-77
2023/08/16 07:06:26;;;;;;;7.53;4.10;;;20.30;99.90;;;;;;5056935;28;20229;-79
2023/08/16 07:08:52;;;;;;;4.97;3.23;;;20.30;99.90;;;;;;5057407;28;20271;-78
2023/08/16 07:11:17;;;;;;;6.30;3.80;;;20.30;99.90;;;;;;5057670;28;20709;-79
2023/08/16 07:13:43;;;;;;;8.80;3.70;;;20.40;99.90;;;;;;5058970;28;20671;-79
2023/08/16 07:16:09;;;;;;;7.70;3.40;;;20.40;99.90;;;;;;5057477;28;20705;-78
2023/08/16 07:18:34;;;;;;;6.37;3.57;;;20.60;99.90;;;;;;5058778;28;20639;-79
2023/08/16 07:21:00;;;;;;;6.73;3.60;;;20.60;99.90;;;;;;5058196;28;20647;-79
2023/08/16 07:23:25;;;;;;;5.80;4.30;;;20.60;99.90;;;;;;5058027;28;20712;-79
2023/08/16 07:25:57;;;;;;;9.13;4.37;;;20.70;99.90;;;;;;5058060;28;20171;-79
2023/08/16 07:28:24;;;;;;;8.83;4.00;;;20.70;99.90;;;;;;5059189;28;20245;-79
2023/08/16 07:30:53;;;;;;;8.57;4.17;;;20.70;99.90;;;;;;5058106;28;20289;-78
2023/08/16 07:33:18;;;;;;;6.00;4.67;;;20.90;99.90;;;;;;5058749;28;20685;-79
2023/08/16 07:35:44;;;;;;;5.43;3.90;;;20.80;99.90;;;;;;5056164;28;20241;-77
2023/08/16 07:38:09;;;;;;;10.10;4.27;;;20.80;99.90;;;;;;5057484;28;20305;-78
2023/08/16 07:40:35;;;;;;;8.63;4.10;;;20.80;99.90;;;;;;5056648;28;20187;-78
2023/08/16 07:43:01;;;;;;;4.30;3.80;;;20.80;99.90;;;;;;5066305;28;20167;-77
2023/08/16 07:45:26;;;;;;;6.13;4.10;;;20.90;99.90;;;;;;5067005;28;20180;-77
2023/08/16 07:47:52;;;;;;;6.27;4.00;;;20.80;99.90;;;;;;5057753;28;20191;-78
2023/08/16 07:50:17;;;;;;;9.67;4.50;;;20.90;99.90;;;;;;5057721;28;20176;-78
2023/08/16 07:52:43;;;;;;;6.70;3.93;;;20.80;99.90;;;;;;5057042;28;20175;-78
2023/08/16 07:55:09;;;;;;;6.30;3.47;;;20.90;99.90;;;;;;5056561;28;20183;-78
2023/08/16 07:57:34;;;;;;;8.33;4.17;;;21.00;99.90;;;;;;5057095;28;20172;-78
2023/08/16 08:00:00;;;;;;;5.10;3.60;;;21.00;99.90;;;;;;5057256;28;20651;-78
2023/08/16 08:02:25;;;;;;;8.97;3.60;;;21.10;99.90;;;;;;5056381;28;20200;-78
2023/08/16 08:04:51;;;;;;;7.10;3.30;;;21.10;99.90;;;;;;5056853;28;20171;-78
2023/08/16 08:07:18;;;;;;;6.33;3.40;;;21.30;99.90;;;;;;5057022;28;20254;-77
2023/08/16 08:09:43;;;;;;;5.80;2.90;;;21.30;99.90;;;;;;5056573;28;20263;-77
2023/08/16 08:12:09;;;;;;;4.40;3.27;;;21.20;99.90;;;;;;5056961;28;20623;-77
2023/08/16 08:14:34;;;;;;;5.33;3.13;;;21.20;99.90;;;;;;5056740;28;20202;-78
2023/08/16 08:17:00;;;;;;;5.90;3.70;;;21.20;99.90;;;;;;5056372;28;20203;-78
2023/08/16 08:19:25;;;;;;;6.27;4.07;;;21.20;99.90;;;;;;5056421;28;20178;-77
2023/08/16 08:21:51;;;;;;;4.53;3.50;;;21.20;99.90;;;;;;5055095;28;20264;-78
2023/08/16 08:24:17;;;;;;;9.43;3.70;;;21.40;99.90;;;;;;5056462;28;20176;-77
2023/08/16 08:26:43;;;;;;;5.17;3.60;;;21.10;99.90;;;;;;5055375;28;20180;-78
2023/08/16 08:29:08;;;;;;;7.93;4.87;;;21.20;99.90;;;;;;5056614;28;20198;-78
2023/08/16 08:31:34;;;;;;;4.80;4.13;;;21.20;99.90;;;;;;5055698;28;20362;-78
2023/08/16 08:34:00;;;;;;;6.20;5.43;;;21.00;99.90;;;;;;5054576;28;20188;-77
2023/08/16 08:36:25;;;;;;;8.90;6.20;;;21.10;99.90;;;;;;5056009;28;20269;-78
2023/08/16 08:38:51;;;;;;;6.60;5.50;;;21.00;99.90;;;;;;5054968;28;20226;-77
2023/08/16 08:41:19;;;;;;;6.50;5.13;;;21.00;99.90;;;;;;5055486;28;20192;-78
2023/08/16 08:43:45;;;;;;;7.40;6.00;;;21.20;99.90;;;;;;5055923;28;20523;-78
2023/08/16 08:46:11;;;;;;;8.07;5.67;;;21.10;99.90;;;;;;5055607;28;20164;-78
2023/08/16 08:48:38;;;;;;;7.47;5.70;;;21.10;99.90;;;;;;5055417;28;20172;-78
2023/08/16 08:51:04;;;;;;;8.20;5.53;;;21.20;99.90;;;;;;5055357;28;20211;-78
2023/08/16 08:53:29;;;;;;;6.97;5.00;;;21.30;99.90;;;;;;5054047;28;20183;-79
2023/08/16 08:56:06;;;;;;;4.53;4.07;;;21.20;99.90;;;;;;5056464;28;20199;-79
2023/08/16 08:58:33;;;;;;;8.37;4.60;;;21.10;99.90;;;;;;5056858;28;20259;-79
2023/08/16 09:00:59;;;;;;;6.03;3.37;;;21.10;99.90;;;;;;5056260;28;20198;-79
2023/08/16 09:03:26;;;;;;;7.40;3.17;;;21.10;99.90;;;;;;5054946;28;20250;-78
2023/08/16 09:05:53;;;;;;;3.60;2.80;;;21.30;99.90;;;;;;5049769;28;20196;-79
2023/08/16 09:08:20;;;;;;;4.73;2.90;;;21.20;99.90;;;;;;5052070;28;20655;-79
2023/08/16 09:10:46;;;;;;;4.70;3.13;;;21.10;99.90;;;;;;5055736;28;20195;-78
2023/08/16 09:13:12;;;;;;;4.23;2.87;;;21.20;99.90;;;;;;5054757;28;20172;-79
2023/08/16 09:15:39;;;;;;;4.23;2.50;;;21.20;99.90;;;;;;5053761;28;20203;-79
2023/08/16 09:18:05;;;;;;;3.37;2.40;;;21.20;99.90;;;;;;5055548;28;20176;-79
2023/08/16 09:20:31;;;;;;;5.87;2.97;;;21.20;99.90;;;;;;5055769;28;20183;-78
2023/08/16 09:22:57;;;;;;;4.07;2.63;;;21.20;99.90;;;;;;5055696;28;20164;-79
2023/08/16 09:25:24;;;;;;;3.33;2.93;;;21.40;99.90;;;;;;5054489;28;20594;-79
2023/08/16 09:27:52;;;;;;;5.93;2.50;;;21.20;99.90;;;;;;5054826;28;20187;-79
2023/08/16 09:30:18;;;;;;;4.67;2.80;;;21.10;99.90;;;;;;5055713;28;20564;-79
2023/08/16 09:32:45;;;;;;;4.97;3.00;;;21.40;99.90;;;;;;5055948;28;20182;-78
2023/08/16 09:35:12;;;;;;;6.43;3.40;;;21.20;99.90;;;;;;5056199;28;20262;-79
2023/08/16 09:37:39;;;;;;;5.33;3.30;;;21.20;99.90;;;;;;5050582;28;20225;-79
2023/08/16 09:40:06;;;;;;;9.70;3.80;;;21.40;99.90;;;;;;5055840;28;20476;-79
2023/08/16 09:42:35;;;;;;;6.87;4.47;;;21.30;99.90;;;;;;5055263;28;20191;-78
2023/08/16 09:45:01;;;;;;;6.07;4.13;;;21.20;99.90;;;;;;5052847;28;20194;-79
2023/08/16 09:47:30;;;;;;;6.47;4.90;;;21.10;99.90;;;;;;5044487;28;20644;-79
2023/08/16 09:49:57;;;;;;;6.70;4.60;;;21.10;99.90;;;;;;5035130;28;20218;-79
2023/08/16 09:52:22;;;;;;;8.40;4.87;;;21.10;99.90;;;;;;5035458;28;20230;-79
2023/08/16 09:54:49;;;;;;;5.53;4.90;;;21.20;99.90;;;;;;5035998;28;20176;-79
2023/08/16 09:57:16;;;;;;;6.43;5.00;;;21.30;99.90;;;;;;5042798;28;20280;-78
2023/08/16 09:59:42;;;;;;;6.77;4.67;;;21.30;99.90;;;;;;5052961;28;20187;-79
2023/08/16 10:02:11;;;;;;;7.90;4.23;;;21.50;99.90;;;;;;5040121;28;20203;-78
2023/08/16 10:04:37;;;;;;;6.73;3.83;;;21.60;99.90;;;;;;5033848;28;20644;-79
2023/08/16 10:07:06;;;;;;;4.47;3.73;;;21.70;99.90;;;;;;5035008;28;20288;-79
2023/08/16 10:09:33;;;;;;;5.67;4.00;;;21.90;99.90;;;;;;5050958;28;20187;-79
2023/08/16 10:12:02;;;;;;;4.77;3.33;;;22.00;99.90;;;;;;5051285;28;20276;-79
2023/08/16 10:14:29;;;;;;;4.83;3.40;;;22.10;99.90;;;;;;5035768;28;20168;-79
2023/08/16 10:17:00;;;;;;;5.27;3.63;;;22.00;99.90;;;;;;5037246;28;20215;-79
2023/08/16 10:19:31;;;;;;;10.47;4.00;;;22.00;99.90;;;;;;5055466;28;20221;-79
2023/08/16 10:21:58;;;;;;;8.60;3.47;;;22.20;99.90;;;;;;5055212;28;20183;-78
2023/08/16 10:24:25;;;;;;;5.80;3.33;;;22.10;99.90;;;;;;5054309;28;20184;-78
2023/08/16 10:26:53;;;;;;;4.73;3.40;;;22.10;99.90;;;;;;5054159;28;20303;-79
2023/08/16 10:29:25;;;;;;;3.87;3.13;;;22.20;99.90;;;;;;5059943;28;20194;-79
2023/08/16 10:31:52;;;;;;;7.30;2.80;;;22.10;99.90;;;;;;5059142;28;20196;-79
2023/08/16 10:34:20;;;;;;;7.60;3.93;;;22.10;99.90;;;;;;5059721;28;20179;-79
2023/08/16 10:36:46;;;;;;;8.37;3.20;;;22.00;99.90;;;;;;5055588;28;20214;-79
2023/08/16 10:39:22;;;;;;;5.37;3.57;;;22.20;99.90;;;;;;5059527;28;20175;-79
2023/08/16 10:41:51;;;;;;;3.97;2.60;;;22.20;99.90;;;;;;5058789;28;20195;-79
2023/08/16 10:44:25;;;;;;;4.47;3.40;;;22.10;99.90;;;;;;5059277;28;20202;-78
2023/08/16 10:46:51;;;;;;;3.93;2.83;;;22.20;99.90;;;;;;5055936;28;20639;-79
2023/08/16 10:49:20;;;;;;;5.17;3.33;;;22.40;99.90;;;;;;5049959;28;20216;-79
2023/08/16 10:51:47;;;;;;;8.73;3.60;;;22.30;99.90;;;;;;5059306;28;20192;-79
2023/08/16 10:54:13;;;;;;;7.10;3.67;;;22.40;99.90;;;;;;5058208;28;20214;-79
2023/08/16 10:56:47;;;;;;;8.67;5.40;;;22.40;99.90;;;;;;5056070;28;20231;-79
2023/08/16 10:59:14;;;;;;;8.23;4.80;;;22.40;99.90;;;;;;5059205;28;20174;-78
2023/08/16 11:01:53;;;;;;;8.13;4.53;;;22.30;99.90;;;;;;5057481;28;20234;-79
2023/08/16 11:04:19;;;;;;;12.23;5.87;;;22.40;99.90;;;;;;5058101;28;20187;-79
2023/08/16 11:06:46;;;;;;;10.50;4.73;;;22.50;99.90;;;;;;5058112;28;20176;-79
2023/08/16 11:09:11;;;;;;;9.93;6.10;;;22.50;99.90;;;;;;5057159;28;20612;-78
2023/08/16 11:11:44;;;;;;;10.80;6.10;;;22.60;99.90;;;;;;5058532;28;20325;-79
2023/08/16 11:14:10;;;;;;;11.87;6.77;;;22.60;99.90;;;;;;5058953;28;20177;-78
2023/08/16 11:16:36;;;;;;;10.07;6.70;;;22.50;99.90;;;;;;5059451;28;20199;-78
2023/08/16 11:19:04;;;;;;;13.57;8.33;;;22.60;99.90;;;;;;5039667;28;20556;-79
2023/08/16 11:21:32;;;;;;;11.30;6.70;;;22.40;99.90;;;;;;5036735;28;20200;-79
2023/08/16 11:23:58;;;;;;;10.83;7.00;;;22.40;99.90;;;;;;5038529;28;20169;-79
2023/08/16 11:26:23;;;;;;;8.10;6.50;;;22.40;99.90;;;;;;5037822;28;20214;-79
2023/08/16 11:28:49;;;;;;;17.13;7.30;;;22.50;99.90;;;;;;5038751;28;20200;-79
2023/08/16 11:31:14;;;;;;;11.13;8.30;;;22.50;99.90;;;;;;5039373;28;20723;-79
2023/08/16 11:33:42;;;;;;;11.50;7.43;;;22.20;99.90;;;;;;5038494;28;20195;-79
2023/08/16 11:36:10;;;;;;;9.43;7.33;;;22.40;99.90;;;;;;5040485;28;20203;-78
2023/08/16 11:38:38;;;;;;;10.93;6.80;;;22.50;99.90;;;;;;5052190;28;20184;-79
2023/08/16 11:41:05;;;;;;;11.03;8.33;;;22.50;99.90;;;;;;5035932;28;20291;-79
2023/08/16 11:43:32;;;;;;;11.60;7.70;;;22.50;99.90;;;;;;5038173;28;20171;-79
2023/08/16 11:45:59;;;;;;;10.70;7.30;;;22.70;99.90;;;;;;5051039;28;20211;-79
2023/08/16 11:48:25;;;;;;;9.40;7.00;;;22.50;99.90;;;;;;5055511;28;20237;-79
2023/08/16 11:50:51;;;;;;;11.73;7.80;;;22.60;99.90;;;;;;5057646;28;20281;-79
2023/08/16 11:53:19;;;;;;;11.63;7.93;;;22.60;99.90;;;;;;5056872;28;20187;-79
2023/08/16 11:55:57;;;;;;;12.23;8.57;;;22.60;99.90;;;;;;5052636;28;20216;-79
2023/08/16 11:58:23;;;;;;;13.50;8.60;;;22.60;99.90;;;;;;5044543;28;20203;-79
2023/08/16 12:00:49;;;;;;;13.90;7.50;;;22.50;99.90;;;;;;5052725;28;20673;-79
2023/08/16 12:03:17;;;;;;;9.37;7.23;;;22.50;99.90;;;;;;5056283;28;20244;-79
2023/08/16 12:05:44;;;;;;;11.43;7.10;;;22.40;99.90;;;;;;5052071;28;20187;-79
2023/08/16 12:08:12;;;;;;;11.13;7.50;;;22.40;99.90;;;;;;5038360;28;20207;-79
2023/08/16 12:10:39;;;;;;;9.77;8.07;;;22.40;99.90;;;;;;5054479;28;20226;-78
2023/08/16 12:13:15;;;;;;;13.13;7.93;;;22.40;99.90;;;;;;5041950;28;20655;-79
2023/08/16 12:15:41;;;;;;;10.00;7.40;;;22.30;99.90;;;;;;5036568;28;20212;-79
2023/08/16 12:18:07;;;;;;;13.60;7.27;;;22.20;99.90;;;;;;5037145;28;20183;-79
2023/08/16 12:20:33;;;;;;;11.13;8.10;;;22.40;99.90;;;;;;5035901;28;20774;-79
2023/08/16 12:22:58;;;;;;;11.67;7.30;;;22.10;99.90;;;;;;5035842;28;20176;-79
2023/08/16 12:25:24;;;;;;;16.70;8.20;;;22.10;99.90;;;;;;5036097;28;20660;-78
2023/08/16 12:27:50;;;;;;;10.30;7.70;;;22.20;99.90;;;;;;5037198;28;20714;-78
2023/08/16 12:30:16;;;;;;;13.73;9.23;;;22.20;99.90;;;;;;5036479;28;20184;-78
2023/08/16 12:32:42;;;;;;;14.27;8.73;;;22.10;99.90;;;;;;5036066;28;20238;-79
2023/08/16 12:35:08;;;;;;;12.47;8.60;;;22.20;99.90;;;;;;5035938;28;20249;-79
2023/08/16 12:37:34;;;;;;;13.33;8.67;;;22.30;99.90;;;;;;5037017;28;20176;-79
2023/08/16 12:39:59;;;;;;;9.80;7.47;;;22.30;99.90;;;;;;5035986;28;20591;-78